createdAt,value
2018-08-19T00:15:51.643Z,52.74
2018-08-19T01:45:50.480Z,52.78
2018-08-19T02:00:50.138Z,53.37
2018-08-19T02:15:50.079Z,53.43
2018-08-19T02:30:55.204Z,52.72
2018-08-19T02:45:49.487Z,52.54
2018-08-19T03:00:52.602Z,53.01
2018-08-19T03:15:54.707Z,52.49
2018-08-19T03:30:54.479Z,53.18
2018-08-19T03:45:50.336Z,53.20
2018-08-19T04:00:50.990Z,52.95
2018-08-19T04:15:51.008Z,52.54
2018-08-19T04:30:50.975Z,52.40
2018-08-19T04:45:51.115Z,51.91
2018-08-19T05:00:51.472Z,50.44
2018-08-19T05:15:51.472Z,49.18
2018-08-19T05:30:51.435Z,48.90
2018-08-19T05:45:56.376Z,47.06
2018-08-19T06:00:59.432Z,45.28
2018-08-19T06:15:50.979Z,43.37
2018-08-19T06:30:56.865Z,42.78
2018-08-19T06:45:50.286Z,40.27
2018-08-19T07:00:53.231Z,39.38
2018-08-19T07:15:51.223Z,37.48
2018-08-19T07:30:53.238Z,36.46
2018-08-19T10:45:51.487Z,23.63
2018-08-19T12:15:51.301Z,29.37
2018-08-19T12:30:51.251Z,29.66
2018-08-19T12:45:51.628Z,30.57
2018-08-19T13:00:50.680Z,32.00
2018-08-19T13:15:50.595Z,40.03
2018-08-19T13:30:50.598Z,45.79
2018-08-19T13:45:50.621Z,46.79
2018-08-19T14:00:51.024Z,46.15
2018-08-19T14:15:51.019Z,47.66
2018-08-19T14:30:57.051Z,49.54
2018-08-19T14:45:50.491Z,47.07
2018-08-19T15:00:51.435Z,46.75
2018-08-19T15:15:51.443Z,45.68
2018-08-19T15:30:51.449Z,43.04
2018-08-19T15:45:51.483Z,44.44
2018-08-19T16:00:50.879Z,47.46
2018-08-19T16:15:50.897Z,47.74
2018-08-19T16:30:50.824Z,48.46
2018-08-19T16:45:55.324Z,47.52
2018-08-19T17:00:53.493Z,45.65
2018-08-19T17:15:51.291Z,47.22
2018-08-19T17:30:53.560Z,47.14
2018-08-19T17:45:51.422Z,49.52
2018-08-19T18:00:50.755Z,48.66
2018-08-19T18:15:50.653Z,48.84
2018-08-19T18:30:58.763Z,50.00
2018-08-19T18:45:50.766Z,48.11
2018-08-19T19:00:54.639Z,47.25
2018-08-19T19:15:51.008Z,49.53
2018-08-19T19:30:58.511Z,46.92
2018-08-19T19:45:53.111Z,47.15
2018-08-19T20:00:55.463Z,45.19
2018-08-19T20:15:50.503Z,46.40
2018-08-19T20:30:51.443Z,45.86
2018-08-19T20:45:51.460Z,46.81
2018-08-19T21:00:51.388Z,46.41
2018-08-19T21:15:54.119Z,46.51
2018-08-19T21:30:50.821Z,47.03
2018-08-19T21:45:52.405Z,46.66
2018-08-19T22:00:59.240Z,47.13
2018-08-19T22:15:51.226Z,47.17
2018-08-19T22:30:51.278Z,48.20
2018-08-19T22:45:51.191Z,47.93
2018-08-19T23:00:50.682Z,48.40
2018-08-19T23:15:50.653Z,48.81
2018-08-19T23:30:50.845Z,49.92
2018-08-19T23:45:50.599Z,49.28
